ULLIDFOO

Guest
Details From ULLI - Saint Petersburg Pulkovo
To DFOO - Bobo Dioulasso
Flight Number -
Tags Decoded
Created
Modified
Stats Distance 3,519 nm / 6,518 km
Max Altitude 0 ft / 0 m
Waypoints 7
Social Downloads 0
Likes 0
Share VATSIM

Download

Looking for another format? Having issues loading an existing format? Contact us
Advertisement - Login to hide

Notes

Decoded

Route

ULLI UNESO KANET MANIV BERNO DB BD

ID Type Via Altitude Latitude Longitude Leg Dist Tot Dist Heading (true) Name
O ULLI APT - 0 ft / 0 m 59.80973˚ 30.24537˚ - 0 nm - -
UNESO FIX - 0 ft / 0 m 59.63333˚ 31.18333˚ 30 nm 30 nm 110° / 111° -
KANET FIX - 0 ft / 0 m 58.73333˚ 33.46667˚ 88 nm 118 nm 127° / 129° -
MANIV FIX - 0 ft / 0 m 58.40500˚ 33.97667˚ 25 nm 144 nm 141° / 141° -
BERNO FIX - 0 ft / 0 m 58.15000˚ 34.36667˚ 19 nm 163 nm 141° / 141° -
DB NDB - 0 ft / 0 m 57.71667˚ 34.96667˚ 32 nm 196 nm 143° / 144° -
O BD VOR - 0 ft / 0 m 11.14503˚ -4.35086˚ 3323 nm 3519 nm 229° / 204° BOBO DIOULASSO VOR-DME

Altitude Profile

Advertisement - Login to hide

Weather


0- 5 10 15 20 25 30 35+ Temperature / ° C

Clouds and Precipitation
Forecast for 2018-05-26 18:00 UTC. Updated an hour ago

Ground ~20,000 ft ~40,000 ft Winds

ULLI

Details ICAO ULLI (LED)
Name Saint Petersburg Pulkovo
Region Russia
Timezone Europe/Moscow (UTC+3.0)
Stats Elevation 78 ft / 24 m (AMSL)
Location 59.800292° 30.262504°
Runways 2
Magnetic Variation 10.762° E

METAR

ULLI 261800Z 27002MPS 240V300 CAVOK 20/08 Q1026 R88/090060 NOSIG

Decode

TAF

TAF ULLI 261655Z 2618/2718 30003G08MPS CAVOK TEMPO 2621/2706 25003G08MPS 9999 BKN030 BECMG 2706/2708 36003G08MPS

Decode

Departure Runways

ID Width Length Bearing (true) Bearing (mag) Surface Threshold Offset Overrun Length
10L 197 ft / 60 m 11,115 ft / 3,388 m 106.38° 95.62° Concrete 0 ft / 0 m 235 ft / 72 m
10R 197 ft / 60 m 12,365 ft / 3,769 m 106.40° 95.64° Concrete 0 ft / 0 m 220 ft / 67 m
28L 197 ft / 60 m 12,365 ft / 3,769 m 286.46° 275.70° Concrete 0 ft / 0 m 260 ft / 79 m
28R 197 ft / 60 m 11,115 ft / 3,388 m 286.44° 275.68° Concrete 0 ft / 0 m 240 ft / 73 m

DFOO

Details ICAO DFOO (BOY)
Name BOBO DIOULASSO
Region Burkina Faso
Timezone Africa/Ouagadougou (UTC+0.0)
Stats Elevation 1,511 ft / 461 m (AMSL)
Location 11.160058° -4.330970°
Runways 1
Magnetic Variation 3.267° W

METAR

DFOO 261800Z 26008KT 9999 FEW020 25/20 Q1010

Decode

TAF

TAF DFOO 261700Z 2618/2718 20010KT 9999 FEW020 PROB30 TEMPO 2618/2705 TS FEW020 FEW033CB

Decode

Destination Runways

ID Width Length Bearing (true) Bearing (mag) Surface Threshold Offset Overrun Length
06 148 ft / 45 m 10,757 ft / 3,279 m 52.66° 55.93° Asphalt 0 ft / 0 m 262 ft / 80 m
24 148 ft / 45 m 10,757 ft / 3,279 m 232.67° 235.94° Asphalt 0 ft / 0 m 262 ft / 80 m